sensor_id;sensor_type;location;lat;lon;timestamp;pressure;altitude;pressure_sealevel;temperature;humidity
19208;BME280;9737;59.466;18.036;2022-09-24T00:02:18;97322.41;;;8.38;70.13
19208;BME280;9737;59.466;18.036;2022-09-24T00:04:46;97308.81;;;8.33;70.16
19208;BME280;9737;59.466;18.036;2022-09-24T00:07:14;97329.47;;;8.46;70.02
19208;BME280;9737;59.466;18.036;2022-09-24T00:09:42;97341.00;;;8.53;70.29
19208;BME280;9737;59.466;18.036;2022-09-24T00:12:10;97350.41;;;8.56;70.29
19208;BME280;9737;59.466;18.036;2022-09-24T00:14:40;97358.19;;;8.57;70.57
19208;BME280;9737;59.466;18.036;2022-09-24T00:17:08;97365.31;;;8.57;70.45
19208;BME280;9737;59.466;18.036;2022-09-24T00:19:36;97362.66;;;8.57;70.38
19208;BME280;9737;59.466;18.036;2022-09-24T00:22:04;97330.34;;;8.38;70.45
19208;BME280;9737;59.466;18.036;2022-09-24T00:24:32;97361.34;;;8.53;70.40
19208;BME280;9737;59.466;18.036;2022-09-24T00:27:17;97378.19;;;8.60;70.83
19208;BME280;9737;59.466;18.036;2022-09-24T00:29:47;97358.75;;;8.45;70.92
19208;BME280;9737;59.466;18.036;2022-09-24T00:32:15;97368.31;;;8.54;70.91
19208;BME280;9737;59.466;18.036;2022-09-24T00:34:43;97340.91;;;8.30;70.81
19208;BME280;9737;59.466;18.036;2022-09-24T00:37:11;97411.78;;;8.67;71.01
19208;BME280;9737;59.466;18.036;2022-09-24T00:39:39;97419.38;;;8.71;71.02
19208;BME280;9737;59.466;18.036;2022-09-24T00:42:08;97407.38;;;8.52;70.64
19208;BME280;9737;59.466;18.036;2022-09-24T00:44:52;97417.28;;;8.58;70.84
19208;BME280;9737;59.466;18.036;2022-09-24T00:47:28;97442.72;;;8.67;71.19
19208;BME280;9737;59.466;18.036;2022-09-24T00:50:06;97475.28;;;8.84;70.74
19208;BME280;9737;59.466;18.036;2022-09-24T00:52:41;97496.94;;;8.87;70.89
19208;BME280;9737;59.466;18.036;2022-09-24T00:55:12;97514.16;;;8.91;71.29
19208;BME280;9737;59.466;18.036;2022-09-24T00:57:42;97516.63;;;8.93;71.32
19208;BME280;9737;59.466;18.036;2022-09-24T01:00:13;97533.88;;;8.97;71.82
19208;BME280;9737;59.466;18.036;2022-09-24T01:02:44;97545.31;;;8.97;71.68
19208;BME280;9737;59.466;18.036;2022-09-24T01:05:13;97532.41;;;8.86;71.06
19208;BME280;9737;59.466;18.036;2022-09-24T01:07:41;97572.41;;;9.08;71.67
19208;BME280;9737;59.466;18.036;2022-09-24T01:10:09;97575.75;;;9.02;71.64
19208;BME280;9737;59.466;18.036;2022-09-24T01:12:41;97591.63;;;9.10;71.40
19208;BME280;9737;59.466;18.036;2022-09-24T01:15:20;97592.31;;;9.04;71.90
19208;BME280;9737;59.466;18.036;2022-09-24T01:17:57;97599.09;;;9.06;72.19
19208;BME280;9737;59.466;18.036;2022-09-24T01:20:52;97595.63;;;9.06;71.83
19208;BME280;9737;59.466;18.036;2022-09-24T01:23:42;97643.25;;;9.22;71.49
19208;BME280;9737;59.466;18.036;2022-09-24T01:26:35;97659.81;;;9.24;72.14
19208;BME280;9737;59.466;18.036;2022-09-24T01:29:28;97658.00;;;9.24;71.67
19208;BME280;9737;59.466;18.036;2022-09-24T01:32:02;97672.44;;;9.30;72.58
19208;BME280;9737;59.466;18.036;2022-09-24T01:34:38;97653.88;;;9.22;72.37
19208;BME280;9737;59.466;18.036;2022-09-24T01:37:07;97670.78;;;9.29;71.89
19208;BME280;9737;59.466;18.036;2022-09-24T01:39:36;97661.66;;;9.23;72.34
19208;BME280;9737;59.466;18.036;2022-09-24T01:42:05;97672.44;;;9.30;72.21
19208;BME280;9737;59.466;18.036;2022-09-24T01:44:36;97677.72;;;9.30;72.16
19208;BME280;9737;59.466;18.036;2022-09-24T01:47:15;97680.38;;;9.30;72.39
19208;BME280;9737;59.466;18.036;2022-09-24T01:49:45;97684.03;;;9.29;72.54
19208;BME280;9737;59.466;18.036;2022-09-24T01:52:17;97697.94;;;9.31;72.39
19208;BME280;9737;59.466;18.036;2022-09-24T01:54:47;97706.38;;;9.35;72.85
19208;BME280;9737;59.466;18.036;2022-09-24T01:57:21;97715.81;;;9.37;72.58
19208;BME280;9737;59.466;18.036;2022-09-24T01:59:55;97741.66;;;9.43;72.82
19208;BME280;9737;59.466;18.036;2022-09-24T02:02:27;97714.38;;;9.26;72.68
19208;BME280;9737;59.466;18.036;2022-09-24T02:05:02;97744.31;;;9.43;72.67
19208;BME280;9737;59.466;18.036;2022-09-24T02:07:36;97740.34;;;9.39;72.64
19208;BME280;9737;59.466;18.036;2022-09-24T02:10:12;97725.28;;;9.31;72.77
19208;BME280;9737;59.466;18.036;2022-09-24T02:12:42;97753.91;;;9.44;73.28
19208;BME280;9737;59.466;18.036;2022-09-24T02:15:17;97769.31;;;9.49;72.66
19208;BME280;9737;59.466;18.036;2022-09-24T02:17:53;97773.97;;;9.47;73.01
19208;BME280;9737;59.466;18.036;2022-09-24T02:20:25;97782.59;;;9.49;73.33
19208;BME280;9737;59.466;18.036;2022-09-24T02:22:55;97772.19;;;9.39;72.86
19208;BME280;9737;59.466;18.036;2022-09-24T02:25:28;97804.47;;;9.59;73.71
19208;BME280;9737;59.466;18.036;2022-09-24T02:27:57;97857.34;;;9.69;73.72
19208;BME280;9737;59.466;18.036;2022-09-24T02:30:27;97866.31;;;9.68;73.29
19208;BME280;9737;59.466;18.036;2022-09-24T02:32:56;97841.13;;;9.55;73.84
19208;BME280;9737;59.466;18.036;2022-09-24T02:35:24;97854.06;;;9.58;72.99
19208;BME280;9737;59.466;18.036;2022-09-24T02:37:51;97876.56;;;9.71;73.63
19208;BME280;9737;59.466;18.036;2022-09-24T02:40:19;97886.84;;;9.74;73.67
19208;BME280;9737;59.466;18.036;2022-09-24T02:42:47;97888.16;;;9.78;73.77
19208;BME280;9737;59.466;18.036;2022-09-24T02:45:16;97902.09;;;9.80;74.25
19208;BME280;9737;59.466;18.036;2022-09-24T02:47:45;97902.59;;;9.75;74.16
19208;BME280;9737;59.466;18.036;2022-09-24T02:50:13;97912.38;;;9.83;74.46
19208;BME280;9737;59.466;18.036;2022-09-24T02:52:41;97918.53;;;9.83;73.87
19208;BME280;9737;59.466;18.036;2022-09-24T02:55:09;97917.03;;;9.81;74.15
19208;BME280;9737;59.466;18.036;2022-09-24T02:57:37;97909.06;;;9.81;73.92
19208;BME280;9737;59.466;18.036;2022-09-24T03:00:07;97898.78;;;9.78;74.20
19208;BME280;9737;59.466;18.036;2022-09-24T03:02:35;97904.09;;;9.78;74.06
19208;BME280;9737;59.466;18.036;2022-09-24T03:05:06;97911.06;;;9.79;73.60
19208;BME280;9737;59.466;18.036;2022-09-24T03:07:34;97911.41;;;9.76;74.51
19208;BME280;9737;59.466;18.036;2022-09-24T03:10:02;97904.09;;;9.78;74.10
19208;BME280;9737;59.466;18.036;2022-09-24T03:12:30;97877.59;;;9.61;74.32
19208;BME280;9737;59.466;18.036;2022-09-24T03:14:58;97882.88;;;9.70;74.62
19208;BME280;9737;59.466;18.036;2022-09-24T03:17:26;97866.97;;;9.61;74.42
19208;BME280;9737;59.466;18.036;2022-09-24T03:19:54;97878.56;;;9.69;74.71
19208;BME280;9737;59.466;18.036;2022-09-24T03:22:23;97877.56;;;9.70;74.53
19208;BME280;9737;59.466;18.036;2022-09-24T03:24:51;97873.25;;;9.69;74.33
19208;BME280;9737;59.466;18.036;2022-09-24T03:27:20;97877.75;;;9.68;74.65
19208;BME280;9737;59.466;18.036;2022-09-24T03:29:48;97882.88;;;9.70;75.26
19208;BME280;9737;59.466;18.036;2022-09-24T03:32:33;97880.56;;;9.67;74.84
19208;BME280;9737;59.466;18.036;2022-09-24T03:35:01;97887.19;;;9.71;75.34
19208;BME280;9737;59.466;18.036;2022-09-24T03:37:31;97893.97;;;9.73;74.53
19208;BME280;9737;59.466;18.036;2022-09-24T03:39:59;97895.81;;;9.73;75.38
19208;BME280;9737;59.466;18.036;2022-09-24T03:42:26;97894.97;;;9.72;75.39
19208;BME280;9737;59.466;18.036;2022-09-24T03:44:54;97875.44;;;9.57;74.80
19208;BME280;9737;59.466;18.036;2022-09-24T03:47:22;97877.94;;;9.58;75.30
19208;BME280;9737;59.466;18.036;2022-09-24T03:49:50;97880.94;;;9.55;75.56
19208;BME280;9737;59.466;18.036;2022-09-24T03:52:19;97897.81;;;9.71;75.26
19208;BME280;9737;59.466;18.036;2022-09-24T03:54:48;97896.97;;;9.70;75.00
19208;BME280;9737;59.466;18.036;2022-09-24T03:57:18;97865.84;;;9.56;75.48
19208;BME280;9737;59.466;18.036;2022-09-24T03:59:46;97865.16;;;9.54;75.23
19208;BME280;9737;59.466;18.036;2022-09-24T04:02:14;97896.97;;;9.70;75.28
19208;BME280;9737;59.466;18.036;2022-09-24T04:04:42;97889.19;;;9.69;75.29
19208;BME280;9737;59.466;18.036;2022-09-24T04:07:11;97884.72;;;9.61;75.69
19208;BME280;9737;59.466;18.036;2022-09-24T04:09:39;97854.91;;;9.43;75.16
19208;BME280;9737;59.466;18.036;2022-09-24T04:12:08;97904.78;;;9.72;75.75
19208;BME280;9737;59.466;18.036;2022-09-24T04:14:36;97905.59;;;9.72;76.18
19208;BME280;9737;59.466;18.036;2022-09-24T04:17:04;97918.69;;;9.74;75.88
19208;BME280;9737;59.466;18.036;2022-09-24T04:19:32;97922.19;;;9.74;75.75
19208;BME280;9737;59.466;18.036;2022-09-24T04:22:00;97917.69;;;9.75;76.03
19208;BME280;9737;59.466;18.036;2022-09-24T04:24:28;97917.03;;;9.73;75.78
19208;BME280;9737;59.466;18.036;2022-09-24T04:26:56;97918.69;;;9.74;75.88
19208;BME280;9737;59.466;18.036;2022-09-24T04:29:25;97924.00;;;9.74;75.88
19208;BME280;9737;59.466;18.036;2022-09-24T04:31:53;97924.84;;;9.74;76.16
19208;BME280;9737;59.466;18.036;2022-09-24T04:34:21;97916.06;;;9.66;75.61
19208;BME280;9737;59.466;18.036;2022-09-24T04:36:49;97915.38;;;9.72;76.00
19208;BME280;9737;59.466;18.036;2022-09-24T04:39:17;97918.69;;;9.74;76.46
19208;BME280;9737;59.466;18.036;2022-09-24T04:41:48;97936.94;;;9.77;76.39
19208;BME280;9737;59.466;18.036;2022-09-24T04:44:16;97915.06;;;9.67;76.37
19208;BME280;9737;59.466;18.036;2022-09-24T04:46:46;97919.38;;;9.68;76.24
19208;BME280;9737;59.466;18.036;2022-09-24T04:49:14;97935.94;;;9.78;76.66
19208;BME280;9737;59.466;18.036;2022-09-24T04:51:42;97955.19;;;9.80;75.81
19208;BME280;9737;59.466;18.036;2022-09-24T04:54:10;97952.19;;;9.75;76.43
19208;BME280;9737;59.466;18.036;2022-09-24T04:56:38;97906.44;;;9.48;76.44
19208;BME280;9737;59.466;18.036;2022-09-24T04:59:07;97931.97;;;9.66;76.82
19208;BME280;9737;59.466;18.036;2022-09-24T05:01:35;97960.50;;;9.80;76.49
19208;BME280;9737;59.466;18.036;2022-09-24T05:04:04;97942.94;;;9.62;76.77
19208;BME280;9737;59.466;18.036;2022-09-24T05:06:32;97979.41;;;9.85;76.80
19208;BME280;9737;59.466;18.036;2022-09-24T05:09:01;97955.88;;;9.66;77.10
19208;BME280;9737;59.466;18.036;2022-09-24T05:11:32;97995.00;;;9.88;76.95
19208;BME280;9737;59.466;18.036;2022-09-24T05:14:00;98002.81;;;9.89;76.56
19208;BME280;9737;59.466;18.036;2022-09-24T05:16:28;98010.44;;;9.92;76.66
19208;BME280;9737;59.466;18.036;2022-09-24T05:18:57;97991.69;;;9.78;76.83
19208;BME280;9737;59.466;18.036;2022-09-24T05:21:26;98034.81;;;9.96;76.39
19208;BME280;9737;59.466;18.036;2022-09-24T05:23:54;98038.13;;;9.98;76.73
19208;BME280;9737;59.466;18.036;2022-09-24T05:26:23;98054.06;;;9.98;77.21
19208;BME280;9737;59.466;18.036;2022-09-24T05:29:08;98081.28;;;10.08;77.01
19208;BME280;9737;59.466;18.036;2022-09-24T05:31:36;98096.03;;;10.11;77.37
19208;BME280;9737;59.466;18.036;2022-09-24T05:34:04;98112.81;;;10.11;76.94
19208;BME280;9737;59.466;18.036;2022-09-24T05:36:34;98133.13;;;10.20;77.10
19208;BME280;9737;59.466;18.036;2022-09-24T05:39:02;98139.38;;;10.11;77.10
19208;BME280;9737;59.466;18.036;2022-09-24T05:41:30;98169.47;;;10.28;77.61
19208;BME280;9737;59.466;18.036;2022-09-24T05:43:58;98196.19;;;10.35;77.69
19208;BME280;9737;59.466;18.036;2022-09-24T05:46:26;98200.50;;;10.36;77.89
19208;BME280;9737;59.466;18.036;2022-09-24T05:48:55;98220.59;;;10.38;77.52
19208;BME280;9737;59.466;18.036;2022-09-24T05:51:23;98234.72;;;10.39;77.23
19208;BME280;9737;59.466;18.036;2022-09-24T05:53:52;98265.47;;;10.49;77.39
19208;BME280;9737;59.466;18.036;2022-09-24T05:56:20;98282.09;;;10.51;77.89
19208;BME280;9737;59.466;18.036;2022-09-24T05:58:48;98294.19;;;10.46;77.68
19208;BME280;9737;59.466;18.036;2022-09-24T06:01:17;98340.41;;;10.61;77.98
19208;BME280;9737;59.466;18.036;2022-09-24T06:03:45;98350.53;;;10.58;77.93
19208;BME280;9737;59.466;18.036;2022-09-24T06:06:13;98399.59;;;10.79;77.73
19208;BME280;9737;59.466;18.036;2022-09-24T06:08:41;98419.19;;;10.78;78.17
19208;BME280;9737;59.466;18.036;2022-09-24T06:11:10;98465.09;;;10.97;78.09
19208;BME280;9737;59.466;18.036;2022-09-24T06:13:38;98471.06;;;10.91;78.00
19208;BME280;9737;59.466;18.036;2022-09-24T06:16:09;98509.69;;;11.03;77.96
19208;BME280;9737;59.466;18.036;2022-09-24T06:18:40;98516.00;;;11.02;78.21
19208;BME280;9737;59.466;18.036;2022-09-24T06:21:11;98553.28;;;11.18;78.00
19208;BME280;9737;59.466;18.036;2022-09-24T06:23:40;98575.91;;;11.22;78.44
19208;BME280;9737;59.466;18.036;2022-09-24T06:26:11;98620.69;;;11.35;78.43
19208;BME280;9737;59.466;18.036;2022-09-24T06:28:40;98657.13;;;11.42;78.39
19208;BME280;9737;59.466;18.036;2022-09-24T06:31:08;98691.75;;;11.51;78.65
19208;BME280;9737;59.466;18.036;2022-09-24T06:33:38;98724.06;;;11.56;78.66
19208;BME280;9737;59.466;18.036;2022-09-24T06:36:07;98765.41;;;11.68;78.54
19208;BME280;9737;59.466;18.036;2022-09-24T06:38:35;98802.72;;;11.76;78.45
19208;BME280;9737;59.466;18.036;2022-09-24T06:41:05;98835.72;;;11.83;78.64
19208;BME280;9737;59.466;18.036;2022-09-24T06:43:35;98847.75;;;11.87;78.66
19208;BME280;9737;59.466;18.036;2022-09-24T06:46:03;98844.38;;;11.85;78.77
19208;BME280;9737;59.466;18.036;2022-09-24T06:48:31;98869.44;;;11.92;78.97
19208;BME280;9737;59.466;18.036;2022-09-24T06:50:59;98888.59;;;11.96;78.82
19208;BME280;9737;59.466;18.036;2022-09-24T06:53:27;98896.22;;;11.91;78.92
19208;BME280;9737;59.466;18.036;2022-09-24T06:55:56;98924.25;;;12.03;78.92
19208;BME280;9737;59.466;18.036;2022-09-24T06:58:25;98950.09;;;12.10;79.17
19208;BME280;9737;59.466;18.036;2022-09-24T07:00:57;98933.72;;;11.97;79.05
19208;BME280;9737;59.466;18.036;2022-09-24T07:03:28;98981.47;;;12.17;79.15
19208;BME280;9737;59.466;18.036;2022-09-24T07:05:59;98989.97;;;12.20;79.13
19208;BME280;9737;59.466;18.036;2022-09-24T07:08:28;99012.66;;;12.24;79.40
19208;BME280;9737;59.466;18.036;2022-09-24T07:10:56;99031.00;;;12.27;79.08
19208;BME280;9737;59.466;18.036;2022-09-24T07:13:24;99056.50;;;12.30;79.11
19208;BME280;9737;59.466;18.036;2022-09-24T07:15:53;99069.03;;;12.37;79.15
19208;BME280;9737;59.466;18.036;2022-09-24T07:18:33;99097.53;;;12.37;79.42
19208;BME280;9737;59.466;18.036;2022-09-24T07:21:23;99120.53;;;12.38;79.30
19208;BME280;9737;59.466;18.036;2022-09-24T07:23:59;99159.28;;;12.50;79.31
19208;BME280;9737;59.466;18.036;2022-09-24T07:26:31;99166.94;;;12.45;79.63
19208;BME280;9737;59.466;18.036;2022-09-24T07:29:07;99204.00;;;12.56;79.42
19208;BME280;9737;59.466;18.036;2022-09-24T07:31:42;99228.84;;;12.57;79.36
19208;BME280;9737;59.466;18.036;2022-09-24T07:34:15;99270.28;;;12.69;79.52
19208;BME280;9737;59.466;18.036;2022-09-24T07:36:45;99310.44;;;12.85;79.50
19208;BME280;9737;59.466;18.036;2022-09-24T07:39:17;99329.22;;;12.76;79.59
19208;BME280;9737;59.466;18.036;2022-09-24T07:41:46;99363.34;;;12.90;79.90
19208;BME280;9737;59.466;18.036;2022-09-24T07:44:28;99398.34;;;13.05;79.64
19208;BME280;9737;59.466;18.036;2022-09-24T07:47:07;99437.13;;;12.99;79.64
19208;BME280;9737;59.466;18.036;2022-09-24T07:49:43;99504.63;;;13.37;79.83
19208;BME280;9737;59.466;18.036;2022-09-24T07:52:12;99515.13;;;13.20;79.75
19208;BME280;9737;59.466;18.036;2022-09-24T07:54:45;99584.19;;;13.51;79.98
19208;BME280;9737;59.466;18.036;2022-09-24T08:00:39;99662.75;;;13.58;79.78
19208;BME280;9737;59.466;18.036;2022-09-24T08:03:43;99711.31;;;13.71;80.13
19208;BME280;9737;59.466;18.036;2022-09-24T08:07:04;99758.22;;;13.83;79.74
19208;BME280;9737;59.466;18.036;2022-09-24T08:09:32;99816.94;;;14.03;79.94
19208;BME280;9737;59.466;18.036;2022-09-24T08:12:01;99877.34;;;14.23;80.21
19208;BME280;9737;59.466;18.036;2022-09-24T08:14:29;99949.72;;;14.39;80.15
19208;BME280;9737;59.466;18.036;2022-09-24T08:16:59;99972.47;;;14.25;80.03
19208;BME280;9737;59.466;18.036;2022-09-24T08:19:27;100087.63;;;14.71;80.05
19208;BME280;9737;59.466;18.036;2022-09-24T08:21:58;100228.59;;;14.99;80.45
19208;BME280;9737;59.466;18.036;2022-09-24T08:24:29;100254.66;;;15.07;79.78
19208;BME280;9737;59.466;18.036;2022-09-24T08:26:57;100373.44;;;15.35;80.02
19208;BME280;9737;59.466;18.036;2022-09-24T08:29:25;100429.25;;;15.49;80.20
19208;BME280;9737;59.466;18.036;2022-09-24T08:31:53;100503.75;;;15.65;79.98
19208;BME280;9737;59.466;18.036;2022-09-24T08:34:21;100518.00;;;15.65;79.99
19208;BME280;9737;59.466;18.036;2022-09-24T08:36:49;100578.81;;;15.74;80.07
19208;BME280;9737;59.466;18.036;2022-09-24T08:39:17;100669.13;;;16.03;80.11
19208;BME280;9737;59.466;18.036;2022-09-24T08:41:53;100765.59;;;16.24;80.18
19208;BME280;9737;59.466;18.036;2022-09-24T08:44:28;100865.88;;;16.42;80.07
19208;BME280;9737;59.466;18.036;2022-09-24T08:47:21;100887.22;;;16.43;80.17
19208;BME280;9737;59.466;18.036;2022-09-24T08:50:06;100891.31;;;16.48;80.09
19208;BME280;9737;59.466;18.036;2022-09-24T08:52:48;101050.44;;;16.90;79.94
19208;BME280;9737;59.466;18.036;2022-09-24T08:55:23;101015.34;;;16.72;80.13
19208;BME280;9737;59.466;18.036;2022-09-24T09:00:49;101199.03;;;17.21;79.95
19208;BME280;9737;59.466;18.036;2022-09-24T09:03:25;101373.56;;;17.64;79.82
19208;BME280;9737;59.466;18.036;2022-09-24T09:06:00;101510.72;;;17.85;80.03
19208;BME280;9737;59.466;18.036;2022-09-24T09:08:36;101513.63;;;17.93;79.92
19208;BME280;9737;59.466;18.036;2022-09-24T09:11:30;101497.00;;;17.88;79.72
19208;BME280;9737;59.466;18.036;2022-09-24T09:14:05;101744.00;;;18.37;79.54
19208;BME280;9737;59.466;18.036;2022-09-24T09:17:02;101889.66;;;18.77;79.65
19208;BME280;9737;59.466;18.036;2022-09-24T09:19:40;101950.88;;;18.86;79.71
19208;BME280;9737;59.466;18.036;2022-09-24T09:22:22;101920.81;;;18.70;79.61
19208;BME280;9737;59.466;18.036;2022-09-24T09:24:52;101885.78;;;18.70;79.49
19208;BME280;9737;59.466;18.036;2022-09-24T09:27:29;102015.72;;;19.06;79.41
19208;BME280;9737;59.466;18.036;2022-09-24T09:30:02;102173.03;;;19.38;79.51
19208;BME280;9737;59.466;18.036;2022-09-24T09:32:49;102324.59;;;19.66;79.22
19208;BME280;9737;59.466;18.036;2022-09-24T09:35:23;102340.78;;;19.77;79.36
19208;BME280;9737;59.466;18.036;2022-09-24T09:38:01;102557.47;;;20.24;79.25
19208;BME280;9737;59.466;18.036;2022-09-24T09:40:35;102376.00;;;19.75;78.96
19208;BME280;9737;59.466;18.036;2022-09-24T09:43:12;102278.22;;;19.61;79.03
19208;BME280;9737;59.466;18.036;2022-09-24T09:45:49;102235.56;;;19.55;79.03
19208;BME280;9737;59.466;18.036;2022-09-24T09:48:24;102127.84;;;19.19;78.87
19208;BME280;9737;59.466;18.036;2022-09-24T09:50:58;102081.88;;;19.21;78.79
19208;BME280;9737;59.466;18.036;2022-09-24T09:53:29;101974.75;;;18.91;78.51
19208;BME280;9737;59.466;18.036;2022-09-24T09:56:02;102078.56;;;19.17;78.53
19208;BME280;9737;59.466;18.036;2022-09-24T09:58:35;102080.03;;;19.22;78.38
19208;BME280;9737;59.466;18.036;2022-09-24T10:01:08;102017.19;;;19.10;78.27
19208;BME280;9737;59.466;18.036;2022-09-24T10:03:46;101878.41;;;18.72;78.22
19208;BME280;9737;59.466;18.036;2022-09-24T10:06:23;101698.06;;;18.39;78.21
19208;BME280;9737;59.466;18.036;2022-09-24T10:08:52;101524.13;;;17.96;78.24
19208;BME280;9737;59.466;18.036;2022-09-24T10:11:21;101502.22;;;17.80;77.99
19208;BME280;9737;59.466;18.036;2022-09-24T10:14:00;101425.16;;;17.79;77.81
19208;BME280;9737;59.466;18.036;2022-09-24T10:16:37;101372.69;;;17.63;77.69
19208;BME280;9737;59.466;18.036;2022-09-24T10:19:14;101335.28;;;17.60;77.48
19208;BME280;9737;59.466;18.036;2022-09-24T10:21:47;101273.38;;;17.41;77.60
19208;BME280;9737;59.466;18.036;2022-09-24T10:24:24;101288.53;;;17.42;77.44
19208;BME280;9737;59.466;18.036;2022-09-24T10:26:53;101355.81;;;17.61;77.14
19208;BME280;9737;59.466;18.036;2022-09-24T10:29:24;101310.38;;;17.58;77.11
19208;BME280;9737;59.466;18.036;2022-09-24T10:32:16;101283.88;;;17.44;76.91
19208;BME280;9737;59.466;18.036;2022-09-24T10:34:53;101279.78;;;17.50;76.89
19208;BME280;9737;59.466;18.036;2022-09-24T10:37:24;101254.13;;;17.36;77.00
19208;BME280;9737;59.466;18.036;2022-09-24T10:39:56;101263.06;;;17.46;76.76
19208;BME280;9737;59.466;18.036;2022-09-24T10:42:26;101204.28;;;17.32;76.75
19208;BME280;9737;59.466;18.036;2022-09-24T10:44:57;101168.75;;;17.28;76.62
19208;BME280;9737;59.466;18.036;2022-09-24T10:47:33;101100.41;;;17.12;76.49
19208;BME280;9737;59.466;18.036;2022-09-24T10:50:15;101075.06;;;17.04;76.30
19208;BME280;9737;59.466;18.036;2022-09-24T10:52:50;101127.59;;;17.18;76.09
19208;BME280;9737;59.466;18.036;2022-09-24T10:55:35;101233.06;;;17.41;76.29
19208;BME280;9737;59.466;18.036;2022-09-24T10:58:13;101328.91;;;17.61;76.33
19208;BME280;9737;59.466;18.036;2022-09-24T11:01:02;101461.38;;;17.95;76.17
19208;BME280;9737;59.466;18.036;2022-09-24T11:04:08;101658.38;;;18.41;75.84
19208;BME280;9737;59.466;18.036;2022-09-24T11:06:45;101828.41;;;18.79;75.84
19208;BME280;9737;59.466;18.036;2022-09-24T11:09:23;102002.06;;;19.18;75.86
19208;BME280;9737;59.466;18.036;2022-09-24T11:12:03;102114.41;;;19.40;75.98
19208;BME280;9737;59.466;18.036;2022-09-24T11:14:45;102128.38;;;19.45;75.65
19208;BME280;9737;59.466;18.036;2022-09-24T11:17:27;102161.84;;;19.54;75.78
19208;BME280;9737;59.466;18.036;2022-09-24T11:23:35;102257.22;;;19.75;75.72
19208;BME280;9737;59.466;18.036;2022-09-24T11:26:15;102307.59;;;19.86;75.67
19208;BME280;9737;59.466;18.036;2022-09-24T11:29:10;102420.44;;;20.15;75.57
19208;BME280;9737;59.466;18.036;2022-09-24T11:31:48;102437.41;;;20.17;75.45
19208;BME280;9737;59.466;18.036;2022-09-24T11:34:35;102557.75;;;20.43;75.39
19208;BME280;9737;59.466;18.036;2022-09-24T11:37:16;102575.66;;;20.44;75.24
19208;BME280;9737;59.466;18.036;2022-09-24T11:39:59;102490.31;;;20.30;75.21
19208;BME280;9737;59.466;18.036;2022-09-24T11:42:32;102566.44;;;20.47;75.08
19208;BME280;9737;59.466;18.036;2022-09-24T11:45:38;102500.25;;;20.30;75.00
19208;BME280;9737;59.466;18.036;2022-09-24T11:48:39;102451.25;;;20.23;74.90
19208;BME280;9737;59.466;18.036;2022-09-24T11:51:17;102393.97;;;20.08;74.75
19208;BME280;9737;59.466;18.036;2022-09-24T11:53:50;102474.47;;;20.26;74.67
19208;BME280;9737;59.466;18.036;2022-09-24T11:56:29;102465.50;;;20.25;74.77
19208;BME280;9737;59.466;18.036;2022-09-24T11:59:07;102495.72;;;20.30;74.42
19208;BME280;9737;59.466;18.036;2022-09-24T12:01:42;102457.28;;;20.27;74.40
19208;BME280;9737;59.466;18.036;2022-09-24T12:04:18;102363.53;;;20.06;74.23
19208;BME280;9737;59.466;18.036;2022-09-24T12:06:52;102333.59;;;19.98;74.07
19208;BME280;9737;59.466;18.036;2022-09-24T12:09:26;102306.09;;;19.93;73.98
19208;BME280;9737;59.466;18.036;2022-09-24T12:12:03;102400.81;;;20.13;74.00
19208;BME280;9737;59.466;18.036;2022-09-24T12:14:42;102372.34;;;20.08;73.86
19208;BME280;9737;59.466;18.036;2022-09-24T12:17:16;102432.25;;;20.25;73.70
19208;BME280;9737;59.466;18.036;2022-09-24T12:19:50;102451.38;;;20.22;73.59
19208;BME280;9737;59.466;18.036;2022-09-24T12:22:21;102386.31;;;20.14;73.47
19208;BME280;9737;59.466;18.036;2022-09-24T12:24:51;102325.97;;;20.03;73.44
19208;BME280;9737;59.466;18.036;2022-09-24T12:27:25;102361.28;;;20.11;73.33
19208;BME280;9737;59.466;18.036;2022-09-24T12:30:00;102359.56;;;20.10;73.04
19208;BME280;9737;59.466;18.036;2022-09-24T12:32:51;102288.91;;;19.94;73.20
19208;BME280;9737;59.466;18.036;2022-09-24T12:35:51;102181.28;;;19.69;73.00
19208;BME280;9737;59.466;18.036;2022-09-24T12:38:25;102175.91;;;19.69;72.88
19208;BME280;9737;59.466;18.036;2022-09-24T12:43:53;102015.94;;;19.35;72.91
19208;BME280;9737;59.466;18.036;2022-09-24T12:46:26;102044.72;;;19.45;72.45
19208;BME280;9737;59.466;18.036;2022-09-24T12:48:56;101962.66;;;19.27;72.29
19208;BME280;9737;59.466;18.036;2022-09-24T12:51:33;101992.38;;;19.37;72.22
19208;BME280;9737;59.466;18.036;2022-09-24T12:54:07;102084.31;;;19.56;72.03
19208;BME280;9737;59.466;18.036;2022-09-24T12:56:36;102025.84;;;19.45;72.08
19208;BME280;9737;59.466;18.036;2022-09-24T12:59:23;101980.75;;;19.36;71.98
19208;BME280;9737;59.466;18.036;2022-09-24T13:01:52;101931.69;;;19.22;71.68
19208;BME280;9737;59.466;18.036;2022-09-24T13:04:25;101882.09;;;19.13;71.71
19208;BME280;9737;59.466;18.036;2022-09-24T13:06:54;101820.41;;;18.99;71.67
19208;BME280;9737;59.466;18.036;2022-09-24T13:09:34;101759.78;;;18.83;71.24
19208;BME280;9737;59.466;18.036;2022-09-24T13:12:17;101780.78;;;18.90;71.20
19208;BME280;9737;59.466;18.036;2022-09-24T13:14:54;101747.78;;;18.76;71.25
19208;BME280;9737;59.466;18.036;2022-09-24T13:17:27;101733.34;;;18.77;71.12
19208;BME280;9737;59.466;18.036;2022-09-24T13:19:57;101686.09;;;18.73;71.14
19208;BME280;9737;59.466;18.036;2022-09-24T13:22:27;101710.06;;;18.76;70.79
19208;BME280;9737;59.466;18.036;2022-09-24T13:25:19;101712.53;;;18.79;70.81
19208;BME280;9737;59.466;18.036;2022-09-24T13:27:59;101679.00;;;18.72;70.68
19208;BME280;9737;59.466;18.036;2022-09-24T13:30:35;101773.88;;;18.97;70.56
19208;BME280;9737;59.466;18.036;2022-09-24T13:33:19;101587.03;;;18.56;70.61
19208;BME280;9737;59.466;18.036;2022-09-24T13:35:59;101547.81;;;18.42;70.25
19208;BME280;9737;59.466;18.036;2022-09-24T13:38:32;101577.22;;;18.55;70.22
19208;BME280;9737;59.466;18.036;2022-09-24T13:41:13;101614.28;;;18.63;70.10
19208;BME280;9737;59.466;18.036;2022-09-24T13:43:51;101561.34;;;18.52;70.04
19208;BME280;9737;59.466;18.036;2022-09-24T13:46:24;101539.16;;;18.39;69.85